Time;durP1;ratioP1;P1;durP2;ratioP2;P2;SDS_P1;SDS_P2;PMS_P1;PMS_P2;Temp;Humidity;BMP_temperature;BMP_pressure;BME280_temperature;BME280_humidity;BME280_pressure;Samples;Min_cycle;Max_cycle;Signal;HPM_P1;HPM_P2
2022/06/19 00:00:46;;;;;;;7.47;4.62;;;;;;;22.62;67.42;100256.48;3677436;80;98838;-82
2022/06/19 00:05:47;;;;;;;10.15;4.33;;;;;;;22.47;66.65;100257.69;3682530;80;99114;-82
2022/06/19 00:10:48;;;;;;;8.23;4.45;;;;;;;22.43;68.01;100259.81;3660015;79;98951;-82
2022/06/19 00:15:49;;;;;;;9.20;5.22;;;;;;;22.40;67.89;100251.55;3667613;79;98878;-81
2022/06/19 00:20:50;;;;;;;6.75;3.70;;;;;;;22.39;68.49;100245.14;3613697;81;98648;-82
2022/06/19 00:25:51;;;;;;;8.45;3.75;;;;;;;22.29;68.09;100253.98;3626330;81;97775;-82
2022/06/19 00:30:52;;;;;;;8.03;3.92;;;;;;;22.25;68.80;100269.55;3652357;80;99287;-81
2022/06/19 00:35:53;;;;;;;9.63;3.95;;;;;;;22.15;68.80;100274.94;3683217;80;99174;-81
2022/06/19 00:40:57;;;;;;;8.38;4.20;;;;;;;22.13;69.48;100273.84;3680485;79;98195;-82
2022/06/19 00:46:03;;;;;;;6.40;3.80;;;;;;;22.12;69.95;100261.07;3683255;80;99063;-81
2022/06/19 00:51:05;;;;;;;9.30;4.00;;;;;;;22.07;69.09;100261.66;3677866;79;98076;-82
2022/06/19 00:56:17;;;;;;;8.48;4.55;;;;;;;22.05;70.06;100249.50;3678264;80;99047;-82
2022/06/19 01:01:22;;;;;;;7.53;3.90;;;;;;;22.03;70.83;100243.59;3673665;80;98636;-82
2022/06/19 01:06:24;;;;;;;6.70;3.35;;;;;;;22.05;71.27;100235.48;3675514;80;99192;-82
2022/06/19 01:11:29;;;;;;;9.65;4.08;;;;;;;21.80;69.57;100227.23;3682478;80;98796;-82
2022/06/19 01:16:30;;;;;;;6.42;3.17;;;;;;;21.80;69.57;100227.23;3687863;79;99092;-82
2022/06/19 01:21:52;;;;;;;6.70;3.22;;;;;;;21.62;68.15;100222.10;3701800;79;98148;-81
2022/06/19 01:26:59;;;;;;;9.28;4.50;;;;;;;21.51;69.14;100221.71;3703334;79;99000;-81
2022/06/19 01:32:07;;;;;;;8.78;3.47;;;;;;;21.43;68.20;100209.22;3716068;79;99000;-80
2022/06/19 01:37:30;;;;;;;5.95;3.30;;;;;;;21.28;68.40;100197.77;3702706;79;98707;-81
2022/06/19 01:42:31;;;;;;;7.55;2.98;;;;;;;21.20;68.04;100184.48;3700068;79;99378;-82
2022/06/19 01:47:33;;;;;;;5.95;3.30;;;;;;;21.12;68.47;100185.34;3697889;79;99157;-83
2022/06/19 01:52:34;;;;;;;11.28;4.40;;;;;;;21.11;68.73;100199.18;3704754;79;99234;-83
2022/06/19 01:57:40;;;;;;;8.73;4.17;;;;;;;21.09;69.09;100187.64;3703841;79;99089;-83
2022/06/19 02:02:43;;;;;;;;;;;;;;;21.05;69.36;100180.01;3721652;79;98620;-83
2022/06/19 02:07:46;;;;;;;5.87;3.20;;;;;;;21.04;69.90;100175.63;3708614;78;84867;-82
2022/06/19 02:12:47;;;;;;;7.12;3.65;;;;;;;20.95;69.84;100176.17;3718093;79;98814;-83
2022/06/19 02:17:52;;;;;;;6.90;3.80;;;;;;;20.97;70.41;100169.49;3710638;78;98859;-83
2022/06/19 02:22:54;;;;;;;5.63;3.10;;;;;;;20.98;71.12;100165.48;3719847;78;98773;-82
2022/06/19 02:27:55;;;;;;;7.65;3.42;;;;;;;20.98;71.24;100166.25;3709440;79;98432;-83
2022/06/19 02:32:57;;;;;;;8.08;3.80;;;;;;;20.99;72.04;100165.64;3714908;79;98768;-81
2022/06/19 02:37:58;;;;;;;9.35;3.98;;;;;;;21.00;72.30;100140.62;3673325;79;98991;-83
2022/06/19 02:42:59;;;;;;;6.75;3.50;;;;;;;20.90;70.70;100147.37;3707106;79;98829;-82
2022/06/19 02:48:00;;;;;;;7.92;3.77;;;;;;;20.81;72.36;100138.25;3703287;79;98845;-83
2022/06/19 02:53:02;;;;;;;6.25;3.80;;;;;;;20.84;72.75;100128.97;3719637;79;99186;-83
2022/06/19 02:58:03;;;;;;;8.15;4.47;;;;;;;20.80;71.95;100128.91;3701416;79;98853;-82
2022/06/19 03:03:28;;;;;;;8.98;4.33;;;;;;;20.80;73.15;100133.90;3684834;79;35106;-82
2022/06/19 03:08:29;;;;;;;9.73;4.25;;;;;;;20.80;73.16;100131.70;3699113;79;99169;-82
2022/06/19 03:13:30;;;;;;;9.75;4.50;;;;;;;20.82;73.83;100137.02;3715397;79;97733;-82
2022/06/19 03:18:31;;;;;;;9.75;5.30;;;;;;;20.83;74.16;100135.01;3688093;79;98790;-82
2022/06/19 03:23:32;;;;;;;11.12;5.72;;;;;;;20.84;74.42;100126.77;3674012;79;98830;-83
2022/06/19 03:28:33;;;;;;;8.33;4.97;;;;;;;20.81;73.84;100100.48;3655810;80;99024;-83
2022/06/19 03:33:34;;;;;;;9.83;5.62;;;;;;;20.74;73.29;100104.95;3681240;80;34767;-82
2022/06/19 03:38:36;;;;;;;9.25;4.80;;;;;;;20.68;72.92;100090.59;3679679;80;98667;-80
2022/06/19 03:43:37;;;;;;;8.28;4.72;;;;;;;20.58;73.00;100087.54;3675651;80;97843;-82
2022/06/19 03:48:41;;;;;;;8.08;5.15;;;;;;;20.63;73.84;100073.78;3620094;81;98951;-83
2022/06/19 03:53:43;;;;;;;8.80;4.72;;;;;;;20.57;73.03;100065.81;3677267;79;98838;-83
2022/06/19 03:58:46;;;;;;;8.48;5.78;;;;;;;20.58;72.97;100073.56;3664650;80;98804;-83
2022/06/19 04:03:50;;;;;;;10.23;4.87;;;;;;;20.55;72.58;100070.29;3641788;79;25727;-83
2022/06/19 04:08:51;;;;;;;9.85;5.00;;;;;;;20.58;73.13;100053.98;3656233;79;98887;-83
2022/06/19 04:13:53;;;;;;;10.35;4.80;;;;;;;20.63;72.70;100061.80;3686795;79;98681;-84
2022/06/19 04:18:57;;;;;;;11.80;5.28;;;;;;;20.66;73.20;100056.08;3676451;78;99315;-83
2022/06/19 04:24:04;;;;;;;10.18;5.28;;;;;;;20.71;72.89;100055.50;3696361;79;98175;-83
2022/06/19 04:29:06;;;;;;;8.40;4.97;;;;;;;20.80;72.74;100060.38;3709990;79;98907;-82
2022/06/19 04:34:09;;;;;;;8.20;5.10;;;;;;;20.88;72.74;100058.27;3717054;79;98892;-82
2022/06/19 04:39:11;;;;;;;10.48;5.87;;;;;;;20.96;72.44;100046.23;3711326;79;98501;-82
2022/06/19 04:44:15;;;;;;;9.55;5.80;;;;;;;21.04;72.09;100037.75;3699828;79;99127;-83
2022/06/19 04:49:17;;;;;;;10.75;6.37;;;;;;;21.12;72.04;100025.83;3700968;79;98898;-82
2022/06/19 04:54:18;;;;;;;10.38;6.40;;;;;;;21.22;71.70;100009.25;3707267;79;99038;-84
2022/06/19 04:59:19;;;;;;;13.10;6.72;;;;;;;21.35;71.45;100014.73;3703235;79;99432;-83
2022/06/19 05:04:20;;;;;;;10.93;6.15;;;;;;;21.49;71.25;100002.38;3696868;79;99294;-83
2022/06/19 05:09:21;;;;;;;10.20;5.58;;;;;;;21.66;70.99;99999.48;3706680;79;98596;-83
2022/06/19 05:14:22;;;;;;;9.70;5.72;;;;;;;21.82;70.84;99981.03;3689184;79;97751;-83
2022/06/19 05:19:23;;;;;;;10.65;5.80;;;;;;;22.12;70.55;99973.77;3693184;79;98900;-83
2022/06/19 05:24:26;;;;;;;12.80;5.72;;;;;;;22.44;69.72;99974.55;3704357;79;98034;-83
2022/06/19 05:29:27;;;;;;;9.05;5.33;;;;;;;22.74;69.06;99960.36;3696174;79;98841;-84
2022/06/19 05:34:28;;;;;;;9.23;5.47;;;;;;;23.14;68.39;99959.47;3708320;79;99020;-84
2022/06/19 05:39:29;;;;;;;9.15;4.90;;;;;;;23.56;67.25;99946.83;3697948;79;98692;-84
2022/06/19 05:44:30;;;;;;;9.50;4.90;;;;;;;23.98;66.57;99928.62;3720377;78;97687;-83
2022/06/19 05:49:34;;;;;;;10.28;4.95;;;;;;;24.44;65.55;99916.36;3704688;79;98885;-84
2022/06/19 05:54:35;;;;;;;13.30;6.05;;;;;;;24.86;64.45;99916.28;3690229;79;99571;-83
2022/06/19 05:59:36;;;;;;;9.35;4.75;;;;;;;25.35;62.57;99913.52;3678686;79;98480;-83
2022/06/19 06:04:37;;;;;;;11.22;5.97;;;;;;;25.68;61.75;99901.30;3703232;79;99137;-85
2022/06/19 06:09:38;;;;;;;14.05;5.75;;;;;;;26.05;61.13;99903.70;3690948;79;98647;-84
2022/06/19 06:14:39;;;;;;;12.60;5.17;;;;;;;26.50;59.13;99900.11;3695080;78;99071;-84
2022/06/19 06:19:41;;;;;;;10.90;5.53;;;;;;;26.88;59.12;99884.83;3688436;79;99054;-84
2022/06/19 06:24:42;;;;;;;9.20;5.28;;;;;;;27.28;57.11;99875.52;3669726;80;98557;-83
2022/06/19 06:29:43;;;;;;;10.68;6.00;;;;;;;27.68;56.06;99875.89;3664227;79;98773;-85
2022/06/19 06:34:43;;;;;;;12.75;5.80;;;;;;;28.01;55.15;99876.05;3670386;80;98797;-84
2022/06/19 06:39:45;;;;;;;12.93;5.70;;;;;;;28.50;54.42;99879.02;3656956;80;99012;-83
2022/06/19 06:44:46;;;;;;;10.75;5.10;;;;;;;28.98;52.95;99885.26;3624348;81;99095;-84
2022/06/19 06:49:47;;;;;;;11.70;5.25;;;;;;;29.22;52.56;99877.64;3667456;79;98924;-83
2022/06/19 06:54:48;;;;;;;13.40;6.17;;;;;;;29.60;51.61;99866.89;3672959;80;99277;-84
2022/06/19 06:59:49;;;;;;;13.40;5.80;;;;;;;29.96;50.15;99874.98;3672063;79;98720;-83
2022/06/19 07:04:50;;;;;;;12.98;5.95;;;;;;;30.18;48.71;99858.55;3675260;80;97949;-85
2022/06/19 07:09:51;;;;;;;14.95;5.00;;;;;;;30.30;47.30;99843.73;3660577;80;98908;-84
2022/06/19 07:14:52;;;;;;;14.35;6.15;;;;;;;30.59;47.41;99843.02;3672349;79;98648;-83
2022/06/19 07:19:53;;;;;;;9.30;4.90;;;;;;;30.87;46.34;99828.60;3676782;79;98664;-84
2022/06/19 07:24:54;;;;;;;11.83;5.92;;;;;;;31.14;45.82;99814.77;3681215;79;97908;-85
2022/06/19 07:29:55;;;;;;;10.88;5.17;;;;;;;31.31;44.00;99782.05;3674078;80;98816;-82
2022/06/19 07:34:56;;;;;;;11.80;4.80;;;;;;;31.54;43.60;99820.97;3652433;80;98821;-80
2022/06/19 07:39:57;;;;;;;9.78;4.80;;;;;;;31.76;43.53;99819.30;3669235;80;98610;-78
2022/06/19 07:44:58;;;;;;;17.80;5.20;;;;;;;32.13;43.24;99828.60;3672588;79;98669;-79
2022/06/19 07:50:17;;;;;;;7.97;4.10;;;;;;;32.22;41.85;99827.44;3664824;80;98669;-80
2022/06/19 07:55:19;;;;;;;15.20;4.50;;;;;;;32.34;41.45;99819.65;3676223;79;98985;-80
2022/06/19 08:00:24;;;;;;;10.78;3.72;;;;;;;32.60;41.49;99826.88;3660332;80;99302;-80
2022/06/19 08:05:29;;;;;;;8.53;4.20;;;;;;;32.93;40.79;99819.22;3667539;79;98979;-80
2022/06/19 08:10:35;;;;;;;11.85;4.28;;;;;;;33.24;40.33;99822.64;3640048;80;98934;-81
2022/06/19 08:15:37;;;;;;;10.38;3.92;;;;;;;33.51;39.16;99814.91;3672257;80;27590;-80
2022/06/19 08:20:38;;;;;;;9.80;3.92;;;;;;;33.62;38.73;99801.83;3678809;79;98632;-80
2022/06/19 08:25:40;;;;;;;12.35;4.03;;;;;;;33.95;37.91;99802.57;3703897;79;98924;-80
2022/06/19 08:30:47;;;;;;;10.63;3.95;;;;;;;34.06;37.19;99795.18;3697878;79;99150;-79
2022/06/19 08:35:50;;;;;;;25.45;5.58;;;;;;;34.14;36.87;99783.95;3662490;78;98749;-78
2022/06/19 08:41:09;;;;;;;16.12;4.45;;;;;;;34.10;35.90;99782.08;3622731;79;99192;-81
2022/06/19 08:46:19;;;;;;;11.85;3.67;;;;;;;34.31;34.82;99771.48;3659516;80;98916;-81
2022/06/19 08:52:03;;;;;;;14.13;4.40;;;;;;;34.31;35.28;99767.20;3594608;81;97965;-80
2022/06/19 08:57:26;;;;;;;9.48;4.08;;;;;;;34.53;35.54;99763.02;3627599;79;98764;-79
2022/06/19 09:02:53;;;;;;;9.17;4.33;;;;;;;34.96;35.11;99749.69;3643334;80;27448;-80
2022/06/19 09:08:05;;;;;;;12.07;4.50;;;;;;;35.00;34.73;99747.89;3557801;81;98213;-81
2022/06/19 09:13:30;;;;;;;11.57;4.12;;;;;;;35.22;34.80;99740.13;3541756;81;98324;-80
2022/06/19 09:18:43;;;;;;;11.65;4.60;;;;;;;35.59;34.53;99734.63;3552968;81;98665;-81
2022/06/19 09:24:10;;;;;;;12.47;4.35;;;;;;;35.67;33.83;99741.14;3506999;82;98786;-81
2022/06/19 09:29:35;;;;;;;12.10;4.37;;;;;;;35.95;33.50;99726.00;3623990;79;99186;-81
2022/06/19 09:34:59;;;;;;;10.18;4.22;;;;;;;36.08;33.18;99720.84;3570997;81;98795;-80
2022/06/19 09:40:41;;;;;;;12.35;4.05;;;;;;;36.03;33.17;99703.86;3584688;81;98823;-81
2022/06/19 09:45:56;;;;;;;12.30;4.83;;;;;;;36.38;33.20;99692.27;3586062;80;98756;-80
2022/06/19 09:51:13;;;;;;;10.90;4.75;;;;;;;36.69;33.21;99676.62;3626560;81;27393;-79
2022/06/19 09:56:55;;;;;;;11.68;3.98;;;;;;;37.00;32.84;99676.64;3639878;79;98484;-81
2022/06/19 10:02:02;;;;;;;15.20;4.35;;;;;;;37.36;31.96;99674.26;3667659;79;98612;-80
2022/06/19 10:07:17;;;;;;;12.15;4.17;;;;;;;37.19;31.64;99666.96;3661097;79;99074;-80
2022/06/19 10:12:39;;;;;;;10.80;4.37;;;;;;;37.41;32.13;99660.37;3665516;78;99109;-77
2022/06/19 10:17:49;;;;;;;14.23;5.12;;;;;;;37.13;30.30;99649.20;3572093;80;99249;-79
2022/06/19 10:23:26;;;;;;;11.45;4.08;;;;;;;36.63;30.82;99639.41;3668711;79;99141;-79
2022/06/19 10:28:36;;;;;;;11.95;4.45;;;;;;;36.42;30.84;99634.55;3665687;79;98766;-80
2022/06/19 10:33:57;;;;;;;17.55;4.53;;;;;;;36.73;31.25;99621.05;3668449;79;98867;-80
2022/06/19 10:39:27;;;;;;;29.02;6.03;;;;;;;36.80;29.43;99630.33;3656597;79;98760;-86
2022/06/19 10:45:00;;;;;;;17.95;5.47;;;;;;;36.58;29.51;99608.83;3671400;79;98854;-79
2022/06/19 10:50:38;;;;;;;17.15;4.28;;;;;;;36.65;29.86;99600.25;3658791;77;99190;-80
2022/06/19 10:56:05;;;;;;;15.60;4.43;;;;;;;36.58;28.88;99575.20;3663256;79;98854;-79
2022/06/19 11:04:06;;;;;;;16.90;4.80;;;;;;;36.68;28.50;99573.95;3668651;80;28721;-80
2022/06/19 11:06:43;;;;;;;21.12;4.25;;;;;;;37.01;28.15;99552.61;3634647;79;98906;-80
2022/06/19 11:11:47;;;;;;;27.52;6.10;;;;;;;37.33;28.11;99553.41;3618384;81;99130;-80
2022/06/19 11:16:59;;;;;;;;;;;;;;;37.87;26.87;99558.92;3645705;80;98713;-79
2022/06/19 11:22:02;;;;;;;15.13;4.33;;;;;;;37.75;26.35;99538.52;3656404;80;85095;-79
2022/06/19 11:27:03;;;;;;;23.10;4.55;;;;;;;37.82;26.17;99541.25;3654009;80;99143;-80
2022/06/19 11:32:16;;;;;;;19.02;4.17;;;;;;;37.79;26.07;99544.63;3595049;81;99178;-78
2022/06/19 11:37:28;;;;;;;17.82;4.67;;;;;;;37.72;25.99;99518.83;3649060;79;98858;-80
2022/06/19 11:42:36;;;;;;;20.88;5.35;;;;;;;37.83;25.48;99530.61;3657838;80;27439;-81
2022/06/19 11:47:43;;;;;;;20.82;4.47;;;;;;;37.78;25.69;99515.03;3653679;80;98777;-80
2022/06/19 11:53:10;;;;;;;23.90;4.90;;;;;;;37.85;25.10;99525.03;3667331;80;98694;-79
2022/06/19 11:58:29;;;;;;;19.45;4.45;;;;;;;37.70;25.19;99510.79;3650770;80;98983;-81
2022/06/19 12:03:48;;;;;;;15.90;4.45;;;;;;;37.88;25.50;99505.86;3668848;80;99227;-80
2022/06/19 12:08:59;;;;;;;17.77;4.58;;;;;;;37.93;25.22;99500.55;3654344;79;99247;-80
2022/06/19 12:14:00;;;;;;;19.70;4.62;;;;;;;37.88;25.02;99513.05;3673055;80;99151;-81
2022/06/19 12:19:27;;;;;;;20.70;5.40;;;;;;;38.02;25.52;99507.11;3665561;80;98262;-84
2022/06/19 12:24:51;;;;;;;19.42;3.95;;;;;;;37.92;24.67;99510.53;3652124;80;28692;-80
2022/06/19 12:29:56;;;;;;;22.77;4.33;;;;;;;37.93;24.87;99494.11;3672733;80;98621;-80
2022/06/19 12:35:02;;;;;;;11.75;3.92;;;;;;;38.11;25.61;99469.84;3671046;80;98757;-79
2022/06/19 12:40:18;;;;;;;19.37;4.10;;;;;;;38.47;25.17;99477.22;3666037;80;98875;-78
2022/06/19 12:45:44;;;;;;;19.92;3.80;;;;;;;38.42;25.17;99485.42;3661515;80;98845;-80
2022/06/19 12:51:14;;;;;;;11.38;3.42;;;;;;;38.46;25.24;99473.52;3661151;80;98852;-79
2022/06/19 12:56:57;;;;;;;15.03;4.33;;;;;;;38.44;25.42;99469.80;3661866;80;98420;-79
2022/06/19 13:02:32;;;;;;;16.73;4.30;;;;;;;38.40;25.12;99447.86;3660447;80;99139;-79
2022/06/19 13:08:03;;;;;;;15.30;4.50;;;;;;;38.25;25.27;99455.21;3663604;80;99245;-78
2022/06/19 13:13:21;;;;;;;25.97;5.90;;;;;;;37.96;24.90;99454.16;3672016;80;27471;-82
2022/06/19 13:18:53;;;;;;;14.33;4.00;;;;;;;37.79;24.91;99451.92;3661554;80;98963;-80
2022/06/19 13:24:35;;;;;;;15.30;4.33;;;;;;;37.81;25.27;99439.94;3639173;80;98578;-83
2022/06/19 13:30:06;;;;;;;16.12;3.90;;;;;;;37.71;25.37;99422.53;3631471;81;98704;-79
2022/06/19 13:35:28;;;;;;;12.80;4.25;;;;;;;37.56;25.29;99410.51;3641272;80;99089;-79
2022/06/19 13:40:50;;;;;;;14.60;3.75;;;;;;;37.32;25.31;99403.32;3634608;81;97936;-80
2022/06/19 13:46:19;;;;;;;16.95;4.30;;;;;;;37.29;25.82;99402.39;3622314;79;99288;-77
2022/06/19 13:51:37;;;;;;;19.37;3.90;;;;;;;37.38;25.60;99388.06;3626862;80;98756;-77
2022/06/19 13:56:52;;;;;;;11.20;3.67;;;;;;;37.29;25.88;99380.08;3639528;80;98784;-79
2022/06/19 14:02:11;;;;;;;9.73;3.80;;;;;;;37.42;25.82;99381.23;3664934;80;98832;-79
2022/06/19 14:07:36;;;;;;;13.72;5.08;;;;;;;37.56;26.03;99367.44;3667086;80;98583;-78
2022/06/19 14:12:42;;;;;;;15.05;4.25;;;;;;;37.44;25.72;99346.95;3661794;80;27406;-81
2022/06/19 14:17:49;;;;;;;15.93;3.83;;;;;;;37.41;25.81;99314.44;3662159;79;98698;-81
2022/06/19 14:23:01;;;;;;;15.32;3.55;;;;;;;37.32;26.03;99320.83;3667794;80;98623;-79
2022/06/19 14:28:19;;;;;;;13.28;3.80;;;;;;;37.34;25.93;99321.69;3665488;79;99255;-79
2022/06/19 14:33:47;;;;;;;11.70;4.05;;;;;;;37.36;25.47;99331.23;3676529;80;99390;-79
2022/06/19 14:38:47;;;;;;;20.68;4.20;;;;;;;37.26;26.00;99326.05;3666976;79;98809;-80
2022/06/19 14:43:58;;;;;;;11.28;3.25;;;;;;;37.18;25.72;99323.94;3646965;80;98879;-79
2022/06/19 14:49:35;;;;;;;11.45;3.42;;;;;;;37.09;25.95;99297.32;3662961;80;98497;-79
2022/06/19 14:55:06;;;;;;;15.85;4.00;;;;;;;37.03;25.47;99309.69;3651120;80;27377;-81
2022/06/19 15:00:30;;;;;;;14.20;4.30;;;;;;;36.86;25.70;99300.26;3649006;80;99044;-77
2022/06/19 15:05:37;;;;;;;;;;;;;;;36.94;25.96;99280.20;3640854;79;99139;-79
2022/06/19 15:10:54;;;;;;;16.35;3.90;;;;;;;36.90;25.49;99289.14;3663203;80;84048;-80
2022/06/19 15:16:19;;;;;;;13.45;4.10;;;;;;;36.78;25.91;99293.14;3606874;81;99327;-78
2022/06/19 15:21:30;;;;;;;12.80;4.10;;;;;;;36.75;25.64;99287.16;3630389;81;98886;-82
2022/06/19 15:26:37;;;;;;;15.38;3.77;;;;;;;36.62;25.64;99284.53;3666142;79;99161;-81
2022/06/19 15:31:58;;;;;;;13.32;3.58;;;;;;;36.50;25.75;99287.77;3669807;79;98755;-78
2022/06/19 15:37:08;;;;;;;17.52;3.80;;;;;;;36.37;25.59;99287.28;3629227;79;98526;-80
2022/06/19 15:42:28;;;;;;;15.93;5.40;;;;;;;36.19;25.74;99307.16;3658401;79;98654;-80
2022/06/19 15:48:04;;;;;;;15.72;3.87;;;;;;;36.02;25.93;99279.13;3673874;78;98971;-78
2022/06/19 15:53:15;;;;;;;13.03;3.35;;;;;;;35.89;25.97;99287.97;3686561;80;98976;-78
2022/06/19 15:58:34;;;;;;;13.93;3.67;;;;;;;35.75;26.01;99284.50;3648442;80;98964;-78
2022/06/19 16:03:46;;;;;;;16.40;4.00;;;;;;;35.62;26.17;99273.23;3679821;80;99310;-79
2022/06/19 16:08:58;;;;;;;14.50;3.33;;;;;;;35.55;26.58;99265.44;3672471;79;99175;-80
2022/06/19 16:14:02;;;;;;;17.20;4.10;;;;;;;35.48;26.63;99272.70;3672985;80;98780;-80
2022/06/19 16:19:09;;;;;;;14.63;3.83;;;;;;;35.40;26.81;99281.20;3660556;79;98335;-78
2022/06/19 16:24:16;;;;;;;15.85;3.65;;;;;;;35.29;26.88;99278.09;3665255;79;98984;-79
2022/06/19 16:29:21;;;;;;;18.10;4.30;;;;;;;35.23;27.18;99273.21;3652771;79;98659;-78
2022/06/19 16:34:30;;;;;;;12.55;3.37;;;;;;;35.15;27.43;99264.55;3669002;80;99200;-79
2022/06/19 16:45:33;;;;;;;17.23;3.75;;;;;;;34.96;27.42;99269.23;3660296;80;99287;-80
2022/06/19 16:50:57;;;;;;;19.10;3.77;;;;;;;34.89;27.50;99262.86;3640713;80;98888;-79
2022/06/19 16:56:00;;;;;;;13.70;3.30;;;;;;;34.81;27.84;99258.47;3641738;79;99030;-80
2022/06/19 17:01:15;;;;;;;16.25;3.67;;;;;;;34.72;28.12;99244.71;3662786;80;28173;-79
2022/06/19 17:06:30;;;;;;;11.68;3.25;;;;;;;34.63;28.14;99242.41;3643923;79;98939;-80
2022/06/19 17:11:42;;;;;;;13.62;3.67;;;;;;;34.47;28.40;99235.93;3644147;80;99080;-78
2022/06/19 17:16:56;;;;;;;16.12;3.67;;;;;;;34.33;28.39;99245.99;3660046;79;99063;-80
2022/06/19 17:22:04;;;;;;;14.70;3.55;;;;;;;34.17;28.78;99255.08;3659716;79;98901;-78
2022/06/19 17:27:13;;;;;;;16.67;3.42;;;;;;;34.04;29.17;99260.93;3661204;79;99231;-80
2022/06/19 17:32:28;;;;;;;16.25;3.65;;;;;;;33.93;29.53;99267.75;3676649;79;98609;-80
2022/06/19 17:37:34;;;;;;;14.00;5.45;;;;;;;33.82;30.55;99297.29;3675971;80;98900;-78
2022/06/19 17:42:38;;;;;;;18.25;5.35;;;;;;;33.62;32.50;99340.93;3678425;80;28264;-79
2022/06/19 17:47:44;;;;;;;13.58;4.70;;;;;;;33.35;34.48;99342.45;3664849;79;99167;-78
2022/06/19 17:52:46;;;;;;;14.25;3.98;;;;;;;32.96;35.96;99372.61;3638468;80;98990;-77
2022/06/19 17:58:07;;;;;;;13.28;4.25;;;;;;;32.57;36.89;99390.59;3644682;79;98877;-79
2022/06/19 18:03:17;;;;;;;13.95;3.87;;;;;;;32.18;37.71;99408.39;3570587;82;98792;-80
2022/06/19 18:08:35;;;;;;;13.88;3.67;;;;;;;31.72;38.25;99434.66;3670143;78;98798;-80
2022/06/19 18:13:49;;;;;;;10.68;3.77;;;;;;;31.28;38.63;99431.19;3662319;80;99116;-80
2022/06/19 18:18:53;;;;;;;9.30;4.08;;;;;;;31.03;39.09;99446.80;3671770;79;98794;-80
2022/06/19 18:24:08;;;;;;;16.23;4.15;;;;;;;30.66;39.29;99446.19;3675785;79;98901;-80
2022/06/19 18:29:42;;;;;;;11.60;3.83;;;;;;;30.35;40.07;99472.39;3700773;79;99082;-79
2022/06/19 18:34:46;;;;;;;11.85;4.30;;;;;;;30.04;40.28;99482.94;3708973;79;98718;-79
2022/06/19 18:39:48;;;;;;;13.22;4.12;;;;;;;29.63;40.55;99509.89;3709470;78;98736;-77
2022/06/19 18:44:54;;;;;;;14.58;4.17;;;;;;;29.45;41.06;99526.14;3662900;78;99230;-78
2022/06/19 18:49:54;;;;;;;12.13;4.08;;;;;;;29.27;41.24;99556.56;3640427;79;99391;-79
2022/06/19 18:54:56;;;;;;;12.85;4.45;;;;;;;29.13;42.21;99574.67;3647275;79;27583;-79
2022/06/19 18:59:58;;;;;;;10.53;4.20;;;;;;;28.99;42.90;99604.87;3662405;79;98844;-79
2022/06/19 19:04:59;;;;;;;14.23;4.15;;;;;;;28.85;43.05;99666.86;3718914;79;98722;-77
2022/06/19 19:10:00;;;;;;;14.43;4.22;;;;;;;28.70;44.69;99682.59;3705352;79;99198;-80
2022/06/19 19:15:22;;;;;;;15.35;5.33;;;;;;;28.56;44.66;99650.45;3706683;79;98847;-79
2022/06/19 19:20:32;;;;;;;9.18;4.05;;;;;;;28.33;44.61;99585.24;3711246;79;98826;-79
2022/06/19 19:25:38;;;;;;;14.30;4.45;;;;;;;27.96;47.00;99584.03;3685748;78;98870;-79
2022/06/19 19:30:41;;;;;;;13.22;5.17;;;;;;;27.60;49.35;99587.22;3675253;80;27452;-79
2022/06/19 19:35:46;;;;;;;17.15;4.60;;;;;;;27.47;51.55;99608.12;3659298;79;99097;-79
2022/06/19 19:40:49;;;;;;;19.87;6.67;;;;;;;27.31;53.57;99702.78;3633004;80;97898;-79
2022/06/19 19:45:56;;;;;;;14.83;5.42;;;;;;;27.10;53.68;99735.27;3629146;79;98807;-80
2022/06/19 19:50:57;;;;;;;15.83;4.92;;;;;;;26.44;55.54;99717.89;3627860;79;97933;-79
2022/06/19 19:55:59;;;;;;;17.87;5.25;;;;;;;26.04;57.19;99694.87;3617976;81;99247;-80
2022/06/19 20:01:00;;;;;;;16.00;5.72;;;;;;;26.04;59.54;99725.13;3675879;80;27420;-81
2022/06/19 20:11:27;;;;;;;13.08;5.65;;;;;;;26.19;61.81;99715.26;3682375;80;99029;-80
2022/06/19 20:16:28;;;;;;;16.02;5.65;;;;;;;26.16;61.67;99738.05;3668132;79;98919;-81
2022/06/19 20:21:46;;;;;;;15.95;5.90;;;;;;;26.10;62.43;99722.48;3679095;79;98925;-81
2022/06/19 20:27:02;;;;;;;13.28;5.53;;;;;;;26.09;62.91;99718.12;3701887;79;98840;-80
2022/06/19 20:31:56;;;;;;;14.55;6.20;;;;;;;26.00;62.95;99726.74;3697573;79;98950;-80
2022/06/19 20:36:58;;;;;;;16.52;6.45;;;;;;;25.92;63.58;99759.48;3707365;78;98898;-80
2022/06/19 20:47:33;;;;;;;15.35;5.58;;;;;;;25.74;64.12;99747.73;3657916;79;98749;-80
2022/06/19 20:52:35;;;;;;;16.32;6.00;;;;;;;25.63;64.63;99733.52;3703745;78;98145;-80
2022/06/19 20:57:36;;;;;;;13.90;6.00;;;;;;;25.47;64.42;99743.96;3664879;79;99067;-77
2022/06/19 21:02:37;;;;;;;15.38;5.65;;;;;;;25.26;64.54;99750.25;3682261;78;98828;-79
2022/06/19 21:07:38;;;;;;;12.78;4.85;;;;;;;25.11;65.34;99807.88;3693278;79;99221;-80
2022/06/19 21:12:40;;;;;;;12.13;4.90;;;;;;;24.99;65.32;99796.29;3700167;79;32841;-80
2022/06/19 21:17:41;;;;;;;14.80;5.00;;;;;;;24.79;65.71;99799.08;3704304;79;100065;-80
2022/06/19 21:22:47;;;;;;;12.53;4.75;;;;;;;24.62;66.33;99826.94;3701792;78;98815;-79
2022/06/19 21:27:55;;;;;;;12.28;4.30;;;;;;;24.51;67.04;99837.98;3666894;79;98856;-80
2022/06/19 21:32:57;;;;;;;10.93;4.00;;;;;;;24.49;67.46;99865.84;3695825;79;98952;-79
2022/06/19 21:37:59;;;;;;;14.60;4.65;;;;;;;24.33;67.43;99882.39;3669468;79;99464;-80
2022/06/19 21:43:01;;;;;;;12.00;3.92;;;;;;;24.20;67.94;99862.98;3673577;80;32554;-80
2022/06/19 21:48:04;;;;;;;12.30;4.25;;;;;;;24.01;67.23;99865.83;3679325;79;98774;-79
2022/06/19 21:53:05;;;;;;;13.88;4.28;;;;;;;23.85;68.31;99864.83;3693371;78;98605;-79
2022/06/19 21:58:09;;;;;;;11.15;4.40;;;;;;;23.84;68.57;99866.09;3687275;80;99152;-79
2022/06/19 22:03:22;;;;;;;12.93;4.62;;;;;;;23.67;68.49;99832.66;3692634;78;99150;-79
2022/06/19 22:08:24;;;;;;;17.07;4.70;;;;;;;23.57;68.85;99860.67;3686254;79;99117;-79
2022/06/19 22:13:25;;;;;;;20.62;4.87;;;;;;;23.47;69.16;99845.74;3697261;79;98533;-79
2022/06/19 22:18:26;;;;;;;13.43;4.33;;;;;;;23.45;69.39;99846.25;3666966;80;98806;-80
2022/06/19 22:23:32;;;;;;;16.00;5.05;;;;;;;23.44;70.28;99851.69;3673203;80;99119;-81
2022/06/19 22:28:33;;;;;;;13.70;4.42;;;;;;;23.26;69.13;99857.42;3653449;80;99811;-80
2022/06/19 22:33:35;;;;;;;16.17;5.50;;;;;;;23.14;69.85;99878.05;3674099;80;99336;-80
2022/06/19 22:38:37;;;;;;;15.25;4.47;;;;;;;23.03;69.71;99881.21;3638850;80;99162;-80
2022/06/19 22:43:38;;;;;;;17.45;5.12;;;;;;;22.92;70.04;99887.34;3679933;80;99265;-78
2022/06/19 22:48:39;;;;;;;14.07;4.35;;;;;;;22.76;70.28;99856.06;3671805;80;98444;-80
2022/06/19 22:53:42;;;;;;;12.37;4.45;;;;;;;22.75;71.41;99829.27;3676222;79;98996;-80
2022/06/19 23:04:05;;;;;;;13.20;4.25;;;;;;;22.77;71.68;99816.96;3671656;80;99294;-80
2022/06/19 23:09:07;;;;;;;11.05;4.37;;;;;;;22.73;71.59;99810.73;3639391;80;98736;-79
2022/06/19 23:14:09;;;;;;;14.80;3.52;;;;;;;22.74;71.91;99838.94;3637372;81;98904;-80
2022/06/19 23:19:14;;;;;;;14.73;4.58;;;;;;;22.68;71.26;99854.21;3671989;80;98610;-80
2022/06/19 23:24:20;;;;;;;12.30;4.03;;;;;;;22.57;71.25;99861.59;3589234;81;98855;-81
2022/06/19 23:29:22;;;;;;;14.05;4.37;;;;;;;22.49;71.61;99866.75;3710814;79;98589;-81
2022/06/19 23:34:23;;;;;;;12.13;4.10;;;;;;;22.28;71.04;99862.08;3720406;78;98915;-81
2022/06/19 23:39:29;;;;;;;13.85;5.22;;;;;;;22.11;71.40;99872.07;3715744;79;99282;-81
2022/06/19 23:44:33;;;;;;;9.58;3.92;;;;;;;21.93;71.72;99861.48;3718281;79;99224;-80
2022/06/19 23:49:35;;;;;;;12.00;5.08;;;;;;;21.84;72.12;99850.27;3719697;78;99314;-80
2022/06/19 23:54:36;;;;;;;7.47;3.80;;;;;;;21.79;72.25;99883.89;3724311;79;27377;-79
2022/06/19 23:59:39;;;;;;;23.47;5.20;;;;;;;21.71;72.33;99865.06;3721763;79;98634;-80
